createdAt,value
2019-01-24T00:00:57.610Z,1.10
2019-01-24T00:05:58.902Z,1.10
2019-01-24T00:11:00.301Z,1.00
2019-01-24T00:16:01.569Z,1.00
2019-01-24T00:21:02.841Z,1.10
2019-01-24T00:26:04.122Z,1.00
2019-01-24T00:31:05.387Z,0.90
2019-01-24T00:36:06.659Z,0.90
2019-01-24T00:41:07.929Z,1.00
2019-01-24T00:46:09.206Z,1.00
2019-01-24T00:51:10.479Z,0.70
2019-01-24T00:56:11.754Z,0.70
2019-01-24T01:01:13.030Z,0.60
2019-01-24T01:06:14.329Z,0.90
2019-01-24T01:11:15.917Z,1.00
2019-01-24T01:16:17.189Z,1.00
2019-01-24T01:21:18.453Z,1.00
2019-01-24T01:26:19.727Z,0.70
2019-01-24T01:31:21.006Z,0.70
2019-01-24T01:36:22.641Z,0.70
2019-01-24T01:41:23.915Z,0.60
2019-01-24T01:46:25.190Z,0.60
2019-01-24T01:51:26.790Z,0.80
2019-01-24T01:56:28.434Z,0.80
2019-01-24T02:01:29.706Z,0.80
2019-01-24T02:06:31.105Z,0.80
2019-01-24T02:11:32.780Z,0.80
2019-01-24T02:16:34.428Z,0.70
2019-01-24T02:21:35.706Z,0.60
2019-01-24T02:26:37.274Z,0.60
2019-01-24T02:31:38.854Z,0.80
2019-01-24T02:36:40.427Z,0.80
2019-01-24T02:41:42.001Z,0.80
2019-01-24T02:46:43.279Z,0.80
2019-01-24T02:51:44.538Z,0.80
2019-01-24T02:56:45.833Z,0.80
2019-01-24T03:01:47.125Z,0.80
2019-01-24T03:06:48.758Z,0.80
2019-01-24T03:11:50.327Z,0.80
2019-01-24T03:16:51.598Z,0.70
2019-01-24T03:21:52.866Z,0.80
2019-01-24T03:26:54.138Z,0.60
2019-01-24T03:31:55.407Z,0.60
2019-01-24T03:36:56.667Z,0.60
2019-01-24T03:41:57.946Z,0.80
2019-01-24T03:46:59.222Z,0.90
2019-01-24T03:52:00.532Z,0.80
2019-01-24T03:57:02.232Z,0.80
2019-01-24T04:02:03.462Z,0.80
2019-01-24T04:07:04.769Z,0.80
2019-01-24T04:12:06.048Z,0.70
2019-01-24T04:17:07.321Z,0.70
2019-01-24T04:22:08.582Z,0.70
2019-01-24T04:27:09.859Z,0.60
2019-01-24T04:32:11.130Z,0.50
2019-01-24T04:37:12.713Z,0.60
2019-01-24T04:42:13.989Z,0.60
2019-01-24T04:47:15.553Z,0.60
2019-01-24T04:52:16.830Z,0.70
2019-01-24T04:57:18.129Z,0.60
2019-01-24T05:02:19.402Z,0.70
2019-01-24T05:07:20.703Z,0.60
2019-01-24T05:12:22.312Z,0.50
2019-01-24T05:17:23.595Z,0.50
2019-01-24T05:22:24.891Z,0.40
2019-01-24T05:27:26.170Z,0.40
2019-01-24T05:32:27.823Z,0.30
2019-01-24T05:37:29.102Z,0.20
2019-01-24T05:42:30.369Z,0.30
2019-01-24T05:47:31.645Z,0.30
2019-01-24T05:52:33.277Z,0.30
2019-01-24T05:57:34.859Z,0.40
2019-01-24T06:02:36.130Z,0.40
2019-01-24T06:07:37.446Z,0.40
2019-01-24T06:12:38.714Z,0.30
2019-01-24T06:17:40.334Z,0.30
2019-01-24T06:22:41.614Z,0.30
2019-01-24T06:27:42.884Z,0.30
2019-01-24T06:32:44.493Z,0.40
2019-01-24T06:37:46.259Z,0.30
2019-01-24T06:42:47.527Z,0.30
2019-01-24T06:47:48.802Z,0.30
2019-01-24T06:52:50.061Z,0.30
2019-01-24T06:57:51.345Z,0.20
2019-01-24T07:02:52.643Z,0.20
2019-01-24T07:07:53.923Z,0.30
2019-01-24T07:12:55.186Z,0.10
2019-01-24T07:17:56.823Z,0.20
2019-01-24T07:22:58.104Z,0.20
2019-01-24T07:27:59.738Z,0.20
2019-01-24T07:33:01.009Z,0.30
2019-01-24T07:38:02.291Z,0.30
2019-01-24T07:43:03.557Z,0.40
2019-01-24T07:48:05.227Z,0.30
2019-01-24T07:53:06.498Z,0.40
2019-01-24T07:58:08.061Z,0.40
2019-01-24T08:03:09.335Z,0.50
2019-01-24T08:08:10.689Z,0.40
2019-01-24T08:13:11.910Z,0.50
2019-01-24T08:18:13.546Z,0.50
2019-01-24T08:23:14.825Z,0.30
2019-01-24T08:28:16.390Z,0.40
2019-01-24T08:33:17.665Z,0.60
2019-01-24T08:38:19.271Z,0.60
2019-01-24T08:43:20.538Z,0.70
2019-01-24T08:48:22.221Z,0.70
2019-01-24T08:53:23.486Z,0.70
2019-01-24T08:58:24.809Z,0.60
2019-01-24T09:03:26.079Z,0.60
2019-01-24T09:08:27.378Z,0.70
2019-01-24T09:13:28.661Z,0.70
2019-01-24T09:18:30.284Z,0.60
2019-01-24T09:23:31.558Z,0.70
2019-01-24T09:28:32.837Z,0.90
2019-01-24T09:33:34.114Z,0.80
2019-01-24T09:38:35.382Z,0.90
2019-01-24T09:43:36.662Z,1.00
2019-01-24T09:48:37.929Z,0.90
2019-01-24T09:53:39.210Z,1.10
2019-01-24T09:58:40.496Z,1.10
2019-01-24T10:03:42.133Z,1.00
2019-01-24T10:08:43.469Z,1.00
2019-01-24T10:13:44.747Z,1.10
2019-01-24T10:18:46.350Z,1.20
2019-01-24T10:23:47.926Z,1.20
2019-01-24T10:28:49.197Z,1.10
2019-01-24T10:33:50.479Z,1.30
2019-01-24T10:38:51.758Z,1.20
2019-01-24T10:43:53.039Z,1.20
2019-01-24T10:48:54.313Z,1.60
2019-01-24T10:53:55.589Z,1.50
2019-01-24T10:58:56.970Z,1.40
2019-01-24T11:03:58.286Z,1.30
2019-01-24T11:08:59.557Z,1.20
2019-01-24T11:14:00.829Z,1.30
2019-01-24T11:19:02.106Z,1.20
2019-01-24T11:24:03.714Z,1.20
2019-01-24T11:29:05.096Z,1.10
2019-01-24T11:34:06.362Z,1.30
2019-01-24T11:39:07.646Z,1.40
2019-01-24T11:44:08.925Z,1.50
2019-01-24T11:49:10.197Z,1.50
2019-01-24T11:54:11.762Z,1.40
2019-01-24T11:59:13.038Z,1.40
2019-01-24T12:04:14.348Z,1.40
2019-01-24T12:09:15.625Z,1.40
2019-01-24T12:14:16.903Z,1.30
2019-01-24T12:19:18.181Z,1.40
2019-01-24T12:24:19.787Z,1.40
2019-01-24T12:29:21.052Z,1.40
2019-01-24T12:34:22.330Z,1.60
2019-01-24T12:39:23.606Z,1.60
2019-01-24T12:44:24.882Z,1.70
2019-01-24T12:49:26.161Z,1.60
2019-01-24T12:54:27.438Z,1.50
2019-01-24T12:59:28.725Z,1.40
2019-01-24T13:04:30.021Z,1.60
2019-01-24T13:09:31.601Z,1.50
2019-01-24T13:14:32.886Z,1.60
2019-01-24T13:19:34.319Z,1.90
2019-01-24T13:24:35.591Z,1.80
2019-01-24T13:29:36.867Z,1.80
2019-01-24T13:34:38.143Z,1.80
2019-01-24T13:39:39.413Z,1.80
2019-01-24T13:44:41.000Z,1.90
2019-01-24T13:49:42.270Z,1.90
2019-01-24T13:54:43.854Z,1.90
2019-01-24T13:59:45.126Z,1.90
2019-01-24T14:04:46.433Z,1.80
2019-01-24T14:09:47.714Z,1.70
2019-01-24T14:14:49.113Z,1.70
2019-01-24T14:19:50.730Z,1.70
2019-01-24T14:24:52.254Z,1.60
2019-01-24T14:29:53.531Z,1.50
2019-01-24T14:34:55.015Z,1.60
2019-01-24T14:39:56.363Z,1.70
2019-01-24T14:44:57.601Z,1.50
2019-01-24T14:49:58.869Z,1.50
2019-01-24T14:55:00.494Z,1.60
2019-01-24T15:00:04.174Z,1.70
2019-01-24T15:05:08.686Z,1.40
2019-01-24T15:10:12.962Z,1.40
2019-01-24T15:15:15.638Z,1.40
2019-01-24T15:20:18.313Z,1.50
2019-01-24T15:25:21.391Z,1.20
2019-01-24T15:30:24.655Z,1.10
2019-01-24T15:35:26.333Z,1.40
2019-01-24T15:40:30.115Z,1.40
2019-01-24T15:45:31.739Z,1.30
2019-01-24T15:50:33.422Z,1.40
2019-01-24T15:55:34.691Z,1.20
2019-01-24T16:00:36.202Z,1.40
2019-01-24T16:05:37.510Z,1.20
2019-01-24T16:10:38.785Z,1.10
2019-01-24T16:15:40.062Z,1.10
2019-01-24T16:20:41.341Z,1.20
2019-01-24T16:25:43.013Z,1.30
2019-01-24T16:30:44.686Z,1.40
2019-01-24T16:35:45.930Z,1.30
2019-01-24T16:40:47.220Z,1.20
2019-01-24T16:45:48.468Z,1.20
2019-01-24T16:50:49.781Z,1.20
2019-01-24T16:55:51.409Z,1.20
2019-01-24T17:00:52.889Z,1.30
2019-01-24T17:05:54.187Z,1.10
2019-01-24T17:10:55.858Z,1.10
2019-01-24T17:15:57.133Z,1.20
2019-01-24T17:20:58.410Z,1.10
2019-01-24T17:25:59.676Z,1.10
2019-01-24T17:31:00.960Z,1.00
2019-01-24T17:36:02.230Z,1.00
2019-01-24T17:41:03.886Z,0.90
2019-01-24T17:46:05.449Z,1.00
2019-01-24T17:51:06.716Z,1.00
2019-01-24T17:56:07.989Z,1.10
2019-01-24T18:01:09.376Z,1.10
2019-01-24T18:06:10.705Z,1.00
2019-01-24T18:11:12.362Z,1.10
2019-01-24T18:16:13.594Z,1.10
2019-01-24T18:21:14.870Z,1.10
2019-01-24T18:26:16.151Z,0.80
2019-01-24T18:31:17.418Z,0.90
2019-01-24T18:36:19.070Z,1.10
2019-01-24T18:41:20.342Z,1.10
2019-01-24T18:46:21.611Z,1.10
2019-01-24T18:51:23.278Z,1.10
2019-01-24T18:56:24.933Z,1.10
2019-01-24T19:01:26.529Z,1.10
2019-01-24T19:06:27.835Z,1.10
2019-01-24T19:11:29.134Z,0.90
2019-01-24T19:16:30.745Z,1.10
2019-01-24T19:21:32.039Z,1.10
2019-01-24T19:26:33.317Z,1.10
2019-01-24T19:31:34.588Z,1.00
2019-01-24T19:36:36.242Z,1.20
2019-01-24T19:41:37.541Z,1.00
2019-01-24T19:46:39.039Z,0.90
2019-01-24T19:51:40.318Z,0.90
2019-01-24T19:56:41.604Z,0.90
2019-01-24T20:01:42.885Z,0.80
2019-01-24T20:06:44.182Z,0.80
2019-01-24T20:11:45.457Z,0.70
2019-01-24T20:16:46.759Z,0.60
2019-01-24T20:21:48.365Z,0.70
2019-01-24T20:26:50.519Z,0.70
2019-01-24T20:31:51.806Z,0.70
2019-01-24T20:36:53.400Z,0.70
2019-01-24T20:41:55.002Z,0.70
2019-01-24T20:46:56.279Z,0.80
2019-01-24T20:51:57.551Z,0.80
2019-01-24T20:56:58.821Z,0.80
2019-01-24T21:02:00.104Z,0.80
2019-01-24T21:07:01.410Z,0.80
2019-01-24T21:12:03.057Z,0.70
2019-01-24T21:17:04.309Z,0.80
2019-01-24T21:22:05.674Z,0.70
2019-01-24T21:27:06.946Z,0.80
2019-01-24T21:32:08.225Z,0.80
2019-01-24T21:37:10.555Z,0.80
2019-01-24T21:42:11.965Z,0.80
2019-01-24T21:47:13.621Z,0.80
2019-01-24T21:52:14.912Z,0.80
2019-01-24T21:57:16.595Z,0.80
2019-01-24T22:02:17.890Z,0.70
2019-01-24T22:07:19.192Z,0.80
2019-01-24T22:12:20.470Z,0.80
2019-01-24T22:17:21.749Z,0.80
2019-01-24T22:22:23.026Z,0.80
2019-01-24T22:27:24.317Z,0.70
2019-01-24T22:32:25.577Z,0.80
2019-01-24T22:37:26.853Z,0.90
2019-01-24T22:42:28.500Z,0.90
2019-01-24T22:47:29.773Z,0.80
2019-01-24T22:52:31.051Z,0.80
2019-01-24T22:57:32.321Z,0.70
2019-01-24T23:02:33.593Z,0.70
2019-01-24T23:07:35.249Z,0.80
2019-01-24T23:12:36.818Z,0.70
2019-01-24T23:17:38.423Z,0.70
2019-01-24T23:22:39.698Z,0.80
2019-01-24T23:27:40.964Z,0.70
2019-01-24T23:32:42.638Z,0.70
2019-01-24T23:37:44.296Z,0.60
2019-01-24T23:42:45.566Z,0.60
2019-01-24T23:47:47.164Z,0.60
2019-01-24T23:52:48.838Z,0.50
2019-01-24T23:57:50.484Z,0.50
